Time;durP1;ratioP1;P1;durP2;ratioP2;P2;SDS_P1;SDS_P2;PMS_P1;PMS_P2;Temp;Humidity;BMP_temperature;BMP_pressure;BME280_temperature;BME280_humidity;BME280_pressure;Samples;Min_cycle;Max_cycle;Signal;HPM_P1;HPM_P2
2024/01/07 00:02:19;;;;;;;19.20;10.10;;;;;;;5.91;65.90;101976.75;4992480;28;20045;-44
2024/01/07 00:04:44;;;;;;;20.05;10.45;;;;;;;5.50;66.87;101979.78;4993536;28;20442;-47
2024/01/07 00:07:10;;;;;;;18.52;10.27;;;;;;;5.73;66.21;101981.84;4994449;28;20057;-45
2024/01/07 00:09:35;;;;;;;18.38;10.15;;;;;;;5.87;66.25;101984.22;4995928;28;20030;-49
2024/01/07 00:12:00;;;;;;;19.50;10.27;;;;;;;6.06;65.49;101982.66;4997197;28;20042;-47
2024/01/07 00:14:26;;;;;;;18.58;10.15;;;;;;;5.57;66.55;101988.75;4996470;28;20042;-48
2024/01/07 00:16:51;;;;;;;19.85;10.52;;;;;;;5.64;66.46;101988.25;4995682;28;20046;-46
2024/01/07 00:19:16;;;;;;;20.92;11.05;;;;;;;5.76;66.61;101994.03;4991457;28;20121;-45
2024/01/07 00:21:42;;;;;;;18.65;9.98;;;;;;;5.43;68.01;102000.09;4991192;28;20038;-47
2024/01/07 00:24:07;;;;;;;19.77;10.35;;;;;;;5.71;67.60;101998.09;4990354;28;20042;-49
2024/01/07 00:26:32;;;;;;;19.52;10.35;;;;;;;5.74;67.90;101995.66;4991155;28;20512;-45
2024/01/07 00:28:58;;;;;;;18.77;10.40;;;;;;;5.33;68.76;102003.88;4990685;28;20073;-46
2024/01/07 00:31:23;;;;;;;18.88;10.80;;;;;;;5.43;68.44;102005.28;4989134;28;20066;-45
2024/01/07 00:33:48;;;;;;;19.17;10.95;;;;;;;5.51;68.68;102002.25;4990276;28;20045;-45
2024/01/07 00:36:13;;;;;;;21.27;10.35;;;;;;;5.42;69.64;102006.97;4990112;28;20046;-48
2024/01/07 00:38:39;;;;;;;21.35;11.30;;;;;;;5.49;68.78;102005.59;4990890;28;20052;-46
2024/01/07 00:41:04;;;;;;;21.42;11.00;;;;;;;5.60;68.37;102007.03;4990233;28;20030;-46
2024/01/07 00:43:30;;;;;;;19.77;10.68;;;;;;;5.30;68.24;102009.81;4991074;28;20038;-46
2024/01/07 00:45:55;;;;;;;20.08;11.35;;;;;;;5.51;68.52;102010.00;4990496;28;20117;-46
2024/01/07 00:48:20;;;;;;;21.73;11.23;;;;;;;5.24;68.94;102013.75;4990439;28;20089;-45
2024/01/07 00:50:46;;;;;;;19.95;11.15;;;;;;;5.68;67.92;102016.94;4991488;28;20492;-46
2024/01/07 00:53:11;;;;;;;20.55;11.32;;;;;;;5.54;68.37;102023.13;4990923;28;20038;-48
2024/01/07 00:55:36;;;;;;;19.20;10.80;;;;;;;5.53;68.42;102007.50;4992040;28;20035;-44
2024/01/07 00:58:02;;;;;;;19.35;11.00;;;;;;;5.70;68.26;102017.03;4991536;28;20038;-45
2024/01/07 01:00:28;;;;;;;21.67;11.45;;;;;;;5.55;68.05;102014.53;4991535;28;20122;-46
2024/01/07 01:02:54;;;;;;;20.33;10.45;;;;;;;5.39;68.54;102011.06;4993073;28;20030;-47
2024/01/07 01:05:19;;;;;;;20.80;10.63;;;;;;;5.81;67.37;102020.16;4990413;28;20451;-44
2024/01/07 01:07:45;;;;;;;18.05;10.18;;;;;;;5.67;67.53;102019.47;4990692;28;20039;-46
2024/01/07 01:10:10;;;;;;;19.67;10.93;;;;;;;5.70;67.52;102023.09;4988181;28;20034;-45
2024/01/07 01:12:35;;;;;;;18.65;10.80;;;;;;;5.70;67.71;102022.19;4992048;28;20114;-47
2024/01/07 01:15:01;;;;;;;21.95;11.32;;;;;;;5.57;67.79;102019.78;4990962;28;20049;-46
2024/01/07 01:17:26;;;;;;;18.88;10.50;;;;;;;5.39;68.02;102021.41;4992156;28;20449;-45
2024/01/07 01:19:51;;;;;;;20.10;10.98;;;;;;;5.71;67.59;102027.47;4991615;28;20038;-50
2024/01/07 01:22:17;;;;;;;20.98;11.13;;;;;;;5.65;67.33;102029.72;4992042;28;20485;-46
2024/01/07 01:24:45;;;;;;;19.33;10.32;;;;;;;5.55;67.59;102029.19;4991620;28;20084;-48
2024/01/07 01:27:11;;;;;;;19.10;10.57;;;;;;;5.87;66.60;102029.16;4991043;28;20117;-46
2024/01/07 01:29:36;;;;;;;19.65;11.18;;;;;;;5.74;66.66;102031.88;4990464;28;20544;-47
2024/01/07 01:32:01;;;;;;;21.67;10.88;;;;;;;5.67;67.46;102037.59;4990222;28;20137;-47
2024/01/07 01:34:27;;;;;;;21.50;10.85;;;;;;;5.56;67.29;102036.09;4990116;28;20027;-48
2024/01/07 01:36:52;;;;;;;21.40;11.48;;;;;;;5.52;67.52;102034.19;4989584;28;20089;-44
2024/01/07 01:39:18;;;;;;;21.98;10.93;;;;;;;5.23;67.77;102043.91;4990328;28;20039;-46
2024/01/07 01:41:43;;;;;;;19.50;10.65;;;;;;;5.56;66.97;102042.19;4990268;28;20041;-47
2024/01/07 01:44:08;;;;;;;19.27;10.63;;;;;;;5.59;66.32;102050.13;4987412;28;20576;-48
2024/01/07 01:46:34;;;;;;;19.58;11.02;;;;;;;5.62;66.32;102047.66;4990333;28;20043;-46
2024/01/07 01:49:00;;;;;;;19.50;10.52;;;;;;;5.78;65.59;102049.38;4989370;28;20042;-47
2024/01/07 01:51:26;;;;;;;20.85;11.18;;;;;;;5.63;66.17;102052.03;4989101;28;20041;-46
2024/01/07 01:53:51;;;;;;;20.52;11.35;;;;;;;5.84;65.55;102059.13;4989564;28;20121;-47
2024/01/07 01:56:20;;;;;;;20.08;10.93;;;;;;;5.73;66.05;102061.19;4989858;28;20046;-45
2024/01/07 01:58:46;;;;;;;21.05;11.32;;;;;;;5.57;65.99;102066.34;4989975;28;20426;-48
2024/01/07 02:01:12;;;;;;;20.25;11.20;;;;;;;5.58;66.38;102061.25;4993087;28;20069;-48
2024/01/07 02:03:38;;;;;;;21.45;11.60;;;;;;;5.92;65.44;102056.16;4993359;28;20117;-49
2024/01/07 02:06:03;;;;;;;21.83;11.52;;;;;;;5.61;66.48;102068.31;4993157;28;20120;-49
2024/01/07 02:08:29;;;;;;;21.58;11.15;;;;;;;5.60;66.26;102062.25;4992402;28;20042;-47
2024/01/07 02:10:55;;;;;;;21.15;11.68;;;;;;;5.71;65.84;102055.91;4993014;28;20571;-47
2024/01/07 02:13:20;;;;;;;20.80;11.52;;;;;;;5.61;66.84;102065.72;4993275;28;20045;-45
2024/01/07 02:15:46;;;;;;;20.55;11.63;;;;;;;5.96;65.83;102058.09;4991853;28;20030;-46
2024/01/07 02:18:11;;;;;;;21.65;10.93;;;;;;;5.85;65.52;102061.81;4992893;28;20121;-49
2024/01/07 02:20:37;;;;;;;21.15;11.50;;;;;;;5.71;66.45;102075.72;4993432;28;20027;-47
2024/01/07 02:23:04;;;;;;;22.55;11.95;;;;;;;5.70;66.43;102068.78;4992865;28;20357;-46
2024/01/07 02:25:29;;;;;;;21.33;11.13;;;;;;;5.92;65.58;102081.13;4993121;28;20109;-45
2024/01/07 02:27:54;;;;;;;21.83;11.95;;;;;;;5.95;65.97;102081.31;4993515;28;20695;-46
2024/01/07 02:30:20;;;;;;;22.50;11.85;;;;;;;5.83;65.96;102078.06;4993453;28;20069;-46
2024/01/07 02:32:45;;;;;;;21.70;12.05;;;;;;;5.79;65.55;102079.59;4992601;28;20088;-46
2024/01/07 02:35:11;;;;;;;21.40;11.38;;;;;;;5.99;65.36;102080.63;4993256;28;20038;-47
2024/01/07 02:37:36;;;;;;;19.33;10.55;;;;;;;5.76;65.64;102079.44;4993933;28;20504;-46
2024/01/07 02:40:02;;;;;;;22.52;11.40;;;;;;;5.61;65.62;102081.25;4992906;28;20551;-46
2024/01/07 02:42:27;;;;;;;18.60;9.70;;;;;;;5.77;65.12;102088.09;4991776;28;20045;-48
2024/01/07 02:44:52;;;;;;;17.40;9.70;;;;;;;5.43;65.72;102083.72;4992397;28;20085;-47
2024/01/07 02:47:18;;;;;;;18.45;9.88;;;;;;;5.49;65.79;102081.44;4993181;28;20038;-45
2024/01/07 02:49:43;;;;;;;16.77;9.65;;;;;;;5.42;65.64;102086.25;4993187;28;20034;-51
2024/01/07 02:52:08;;;;;;;18.92;9.77;;;;;;;5.76;65.73;102091.47;4992365;28;20125;-46
2024/01/07 02:54:34;;;;;;;19.02;9.65;;;;;;;5.52;66.05;102094.56;4993000;28;20630;-47
2024/01/07 02:56:59;;;;;;;18.67;10.05;;;;;;;5.79;65.41;102092.56;4992402;28;20038;-48
2024/01/07 02:59:24;;;;;;;18.95;10.43;;;;;;;5.31;66.75;102089.13;4994916;28;20066;-46
2024/01/07 03:01:49;;;;;;;18.98;10.43;;;;;;;4.84;68.08;102083.97;4995321;28;20127;-48
2024/01/07 03:04:16;;;;;;;19.08;10.25;;;;;;;5.18;68.01;102091.88;4993341;28;20126;-46
2024/01/07 03:06:41;;;;;;;19.95;10.45;;;;;;;5.26;67.10;102095.75;4994011;28;20520;-46
2024/01/07 03:09:07;;;;;;;20.00;10.68;;;;;;;5.55;66.82;102109.38;4991811;28;20121;-45
2024/01/07 03:11:32;;;;;;;17.75;9.93;;;;;;;5.38;67.20;102105.84;4992643;28;20065;-48
2024/01/07 03:13:58;;;;;;;17.85;9.38;;;;;;;5.18;67.34;102109.09;4994748;28;20549;-44
2024/01/07 03:16:25;;;;;;;18.45;9.68;;;;;;;5.32;66.55;102114.19;4994917;28;20046;-47
2024/01/07 03:18:50;;;;;;;19.00;10.13;;;;;;;5.46;66.34;102114.94;4995156;28;20593;-49
2024/01/07 03:21:18;;;;;;;17.55;9.10;;;;;;;4.91;67.76;102116.19;4994292;28;20062;-46
2024/01/07 03:23:43;;;;;;;17.05;9.57;;;;;;;5.80;65.50;102121.88;4993045;28;20030;-46
2024/01/07 03:26:09;;;;;;;17.38;9.68;;;;;;;5.37;66.10;102114.41;4992932;28;20035;-49
2024/01/07 03:28:34;;;;;;;18.30;9.77;;;;;;;5.54;65.40;102118.81;4992934;28;20050;-45
2024/01/07 03:31:13;;;;;;;20.10;11.00;;;;;;;5.80;65.17;102124.47;4991900;28;20069;-44
2024/01/07 03:33:40;;;;;;;19.77;10.85;;;;;;;5.82;65.03;102131.50;4992380;28;20405;-47
2024/01/07 03:36:10;;;;;;;21.30;11.38;;;;;;;5.87;65.81;102135.25;4991948;28;20035;-46
2024/01/07 03:38:36;;;;;;;19.50;10.25;;;;;;;5.96;65.62;102137.44;4992201;28;20044;-46
2024/01/07 03:41:02;;;;;;;19.50;10.68;;;;;;;5.70;66.41;102142.09;4991552;28;20125;-46
2024/01/07 03:43:28;;;;;;;20.73;10.98;;;;;;;6.13;65.24;102143.47;4991589;28;20038;-46
2024/01/07 03:45:53;;;;;;;19.67;10.93;;;;;;;5.90;66.19;102145.78;4991225;28;20045;-46
2024/01/07 03:48:18;;;;;;;20.42;11.10;;;;;;;5.85;66.83;102142.03;4991866;28;20031;-45
2024/01/07 03:50:44;;;;;;;23.88;11.77;;;;;;;5.86;66.26;102138.63;4991664;28;20112;-50
2024/01/07 03:53:09;;;;;;;21.35;11.73;;;;;;;5.76;66.40;102149.31;4991036;28;20042;-46
2024/01/07 03:55:34;;;;;;;22.63;11.85;;;;;;;6.18;65.54;102154.97;4992035;28;20035;-46
2024/01/07 03:58:00;;;;;;;21.48;11.85;;;;;;;5.92;65.63;102159.66;4992543;28;20398;-49
2024/01/07 04:00:25;;;;;;;21.80;12.10;;;;;;;5.51;67.20;102162.63;4993138;28;20038;-45
2024/01/07 04:02:50;;;;;;;26.42;13.27;;;;;;;5.51;65.87;102161.72;4992396;28;20096;-45
2024/01/07 04:05:16;;;;;;;22.42;11.65;;;;;;;6.04;64.94;102177.53;4991370;28;20088;-43
2024/01/07 04:07:41;;;;;;;21.90;11.60;;;;;;;5.29;67.62;102180.38;4991843;28;20032;-46
2024/01/07 04:10:06;;;;;;;23.10;12.52;;;;;;;5.58;66.24;102176.78;4991210;28;20100;-47
2024/01/07 04:12:32;;;;;;;24.27;12.18;;;;;;;5.78;66.09;102175.25;4991043;28;20038;-47
2024/01/07 04:14:57;;;;;;;25.58;13.15;;;;;;;6.14;64.94;102187.59;4992641;28;20053;-46
2024/01/07 04:17:23;;;;;;;20.75;11.90;;;;;;;5.36;67.40;102184.19;4993428;28;20400;-48
2024/01/07 04:19:49;;;;;;;26.92;13.27;;;;;;;5.64;66.18;102185.75;4992544;28;20038;-48
2024/01/07 04:22:14;;;;;;;24.48;12.73;;;;;;;5.13;67.17;102185.47;4990409;28;20066;-46
2024/01/07 04:24:43;;;;;;;22.98;12.55;;;;;;;4.90;67.99;102172.16;4990992;28;20045;-44
2024/01/07 04:27:09;;;;;;;25.42;12.80;;;;;;;5.27;67.26;102187.13;4990028;28;20818;-45
2024/01/07 04:29:34;;;;;;;25.42;13.23;;;;;;;5.75;65.95;102195.78;4991318;28;20076;-47
2024/01/07 04:31:59;;;;;;;27.52;13.55;;;;;;;5.32;66.35;102199.50;4990977;28;20041;-50
2024/01/07 04:34:25;;;;;;;26.35;13.57;;;;;;;5.42;66.78;102193.16;4989196;28;20035;-50
2024/01/07 04:36:51;;;;;;;25.20;13.40;;;;;;;4.87;67.75;102194.34;4990660;28;20065;-45
2024/01/07 04:39:16;;;;;;;25.55;12.65;;;;;;;5.47;67.01;102203.75;4990799;28;20042;-49
2024/01/07 04:41:41;;;;;;;26.10;13.85;;;;;;;4.96;67.85;102207.78;4990990;28;20061;-47
2024/01/07 04:44:07;;;;;;;25.90;13.55;;;;;;;5.38;67.70;102208.41;4989958;28;20607;-49
2024/01/07 04:46:39;;;;;;;24.52;13.18;;;;;;;5.52;66.94;102210.97;4990958;28;20046;-46
2024/01/07 04:49:05;;;;;;;24.35;13.40;;;;;;;5.15;67.25;102204.56;4987090;28;20030;-51
2024/01/07 04:51:31;;;;;;;24.05;12.70;;;;;;;5.60;66.41;102208.81;4990829;28;20030;-50
2024/01/07 04:53:56;;;;;;;24.48;13.10;;;;;;;5.37;66.93;102214.41;4990112;28;20130;-50
2024/01/07 04:56:21;;;;;;;23.90;12.38;;;;;;;5.32;66.74;102214.13;4990650;28;20069;-44
2024/01/07 04:58:47;;;;;;;23.75;12.40;;;;;;;5.41;66.08;102218.94;4990532;28;20042;-48
2024/01/07 05:01:12;;;;;;;22.30;11.80;;;;;;;5.46;66.37;102227.84;4990424;28;20034;-45
2024/01/07 05:03:37;;;;;;;22.95;11.75;;;;;;;5.16;66.58;102224.44;4990356;28;20430;-47
2024/01/07 05:06:04;;;;;;;21.52;11.48;;;;;;;4.88;67.36;102224.53;4990122;28;20125;-47
2024/01/07 05:08:29;;;;;;;21.02;11.30;;;;;;;4.83;67.38;102231.13;4990932;28;20034;-45
2024/01/07 05:10:54;;;;;;;21.63;11.27;;;;;;;5.18;66.26;102230.59;4990407;28;20045;-45
2024/01/07 05:13:20;;;;;;;20.95;11.60;;;;;;;4.97;65.58;102234.53;4991302;28;20042;-43
2024/01/07 05:15:46;;;;;;;23.20;11.63;;;;;;;5.25;66.13;102238.75;4991081;28;20497;-49
2024/01/07 05:18:12;;;;;;;20.10;10.90;;;;;;;5.37;65.16;102241.13;4990546;28;20034;-48
2024/01/07 05:20:37;;;;;;;21.98;11.63;;;;;;;5.22;64.42;102237.72;4989270;28;20501;-44
2024/01/07 05:23:03;;;;;;;21.27;11.35;;;;;;;4.90;65.83;102247.09;4989878;28;20236;-46
2024/01/07 05:25:28;;;;;;;20.92;11.00;;;;;;;5.23;64.93;102248.13;4990480;28;20038;-43
2024/01/07 05:27:54;;;;;;;20.17;10.82;;;;;;;4.57;66.60;102252.00;4990573;28;20030;-46
2024/01/07 05:30:19;;;;;;;20.38;10.30;;;;;;;5.09;65.09;102248.16;4990903;28;20491;-46
2024/01/07 05:32:44;;;;;;;20.75;11.05;;;;;;;5.34;64.63;102263.34;4991397;28;20093;-46
2024/01/07 05:35:10;;;;;;;21.48;11.25;;;;;;;5.27;64.83;102257.84;4992550;28;20046;-44
2024/01/07 05:37:35;;;;;;;21.25;11.10;;;;;;;5.23;64.93;102263.66;4994801;28;20128;-46
2024/01/07 05:40:01;;;;;;;23.30;11.60;;;;;;;5.38;65.06;102273.06;4994685;28;20038;-44
2024/01/07 05:42:26;;;;;;;23.45;12.15;;;;;;;5.24;64.54;102261.97;4994667;28;20038;-43
2024/01/07 05:44:51;;;;;;;23.33;11.88;;;;;;;5.12;65.27;102275.06;4993979;28;20040;-45
2024/01/07 05:47:16;;;;;;;22.73;11.75;;;;;;;5.36;65.40;102275.59;4994555;28;20122;-47
2024/01/07 05:49:42;;;;;;;23.30;12.07;;;;;;;4.79;65.80;102286.91;4994481;28;20133;-47
2024/01/07 05:52:07;;;;;;;22.60;11.70;;;;;;;4.57;66.63;102270.06;4993688;28;20061;-44
2024/01/07 05:54:34;;;;;;;21.70;12.02;;;;;;;5.25;65.74;102295.63;4994100;28;20100;-49
2024/01/07 05:56:59;;;;;;;26.48;11.80;;;;;;;5.05;66.13;102295.31;4993435;28;20856;-50
2024/01/07 05:59:24;;;;;;;23.98;12.63;;;;;;;5.40;65.60;102287.88;4992991;28;20050;-46
2024/01/07 06:01:50;;;;;;;23.90;12.68;;;;;;;5.01;66.89;102290.75;4993296;28;20045;-45
2024/01/07 06:04:15;;;;;;;27.05;13.55;;;;;;;5.14;66.87;102298.41;4991586;28;20500;-47
2024/01/07 06:06:40;;;;;;;24.52;12.95;;;;;;;5.20;66.31;102302.25;4994240;28;20039;-47
2024/01/07 06:09:06;;;;;;;27.48;13.68;;;;;;;5.14;66.98;102301.88;4993659;28;20416;-46
2024/01/07 06:11:32;;;;;;;26.35;13.43;;;;;;;4.92;67.73;102316.06;4994386;28;20557;-45
2024/01/07 06:13:57;;;;;;;26.33;14.07;;;;;;;5.11;66.87;102316.34;4993104;28;20045;-51
2024/01/07 06:16:23;;;;;;;26.33;13.85;;;;;;;5.49;66.29;102323.72;4993920;28;20049;-44
2024/01/07 06:18:48;;;;;;;27.83;13.93;;;;;;;5.38;66.50;102324.78;4994392;28;20034;-47
2024/01/07 06:21:14;;;;;;;28.40;13.95;;;;;;;5.48;66.79;102321.94;4993928;28;20042;-47
2024/01/07 06:23:39;;;;;;;26.10;13.45;;;;;;;4.60;68.09;102319.31;4994284;28;20343;-46
2024/01/07 06:26:05;;;;;;;28.80;14.77;;;;;;;5.38;66.79;102329.94;4994682;28;20430;-45
2024/01/07 06:28:32;;;;;;;28.88;14.93;;;;;;;5.35;66.54;102322.94;4997527;28;20472;-45
2024/01/07 06:30:58;;;;;;;28.85;14.07;;;;;;;5.32;66.63;102327.91;4996052;28;20036;-44
2024/01/07 06:33:23;;;;;;;27.45;13.95;;;;;;;5.17;66.92;102335.69;4997406;28;20034;-45
2024/01/07 06:35:48;;;;;;;30.35;14.55;;;;;;;5.31;66.57;102337.34;4993475;28;20130;-48
2024/01/07 06:38:14;;;;;;;27.83;13.88;;;;;;;5.51;65.96;102335.91;4992730;28;20035;-45
2024/01/07 06:40:40;;;;;;;26.90;13.75;;;;;;;5.48;66.27;102340.03;4991217;28;20061;-46
2024/01/07 06:43:06;;;;;;;27.33;14.65;;;;;;;4.73;67.27;102347.66;4992225;28;20058;-48
2024/01/07 06:45:32;;;;;;;28.10;14.02;;;;;;;5.02;67.51;102345.13;4990888;28;20412;-44
2024/01/07 06:47:57;;;;;;;26.67;13.80;;;;;;;4.90;67.92;102350.44;4991890;28;20121;-50
2024/01/07 06:50:23;;;;;;;30.05;14.15;;;;;;;5.47;65.89;102362.44;4992855;28;20030;-51
2024/01/07 06:52:49;;;;;;;26.13;13.20;;;;;;;5.38;65.75;102363.56;4992853;28;20045;-45
2024/01/07 06:55:14;;;;;;;27.02;13.52;;;;;;;5.42;66.15;102366.44;4991942;28;20050;-47
2024/01/07 06:57:39;;;;;;;27.83;13.55;;;;;;;5.03;66.63;102369.28;4993280;28;20049;-49
2024/01/07 07:00:05;;;;;;;30.70;14.23;;;;;;;5.46;65.75;102368.41;4988730;28;20038;-45
2024/01/07 07:02:31;;;;;;;27.42;13.90;;;;;;;4.97;67.81;102381.84;4993059;28;20035;-45
2024/01/07 07:04:56;;;;;;;29.15;14.05;;;;;;;5.14;66.74;102379.44;4991759;28;20117;-46
2024/01/07 07:07:22;;;;;;;26.38;13.98;;;;;;;5.42;66.53;102389.72;4991287;28;20065;-46
2024/01/07 07:09:47;;;;;;;27.58;14.27;;;;;;;5.36;65.85;102391.06;4992507;28;20038;-45
2024/01/07 07:12:12;;;;;;;30.30;14.10;;;;;;;5.69;65.05;102395.56;4991874;28;20031;-46
2024/01/07 07:14:38;;;;;;;26.92;13.80;;;;;;;5.67;65.40;102399.78;4991863;28;20124;-45
2024/01/07 07:17:03;;;;;;;26.40;13.57;;;;;;;5.81;64.68;102397.97;4991565;28;20038;-46
2024/01/07 07:19:29;;;;;;;25.85;13.35;;;;;;;4.92;66.70;102398.75;4992421;28;20476;-48
2024/01/07 07:21:54;;;;;;;26.88;13.63;;;;;;;5.39;65.94;102407.63;4992325;28;20046;-45
2024/01/07 07:24:20;;;;;;;26.15;12.93;;;;;;;5.43;65.18;102408.72;4992105;28;20445;-44
2024/01/07 07:26:45;;;;;;;26.77;13.32;;;;;;;5.15;66.03;102416.53;4991667;28;20061;-46
2024/01/07 07:29:11;;;;;;;26.15;13.10;;;;;;;5.02;66.10;102417.47;4992156;28;20413;-51
2024/01/07 07:31:37;;;;;;;26.02;13.30;;;;;;;5.27;65.68;102414.66;4992075;28;20497;-45
2024/01/07 07:34:05;;;;;;;28.23;12.57;;;;;;;5.25;65.93;102421.44;4991167;28;20042;-43
2024/01/07 07:36:30;;;;;;;24.95;12.75;;;;;;;5.23;65.39;102428.22;4991862;28;20046;-43
2024/01/07 07:38:56;;;;;;;22.98;11.57;;;;;;;4.76;66.37;102433.09;4991383;28;20605;-45
2024/01/07 07:41:21;;;;;;;27.88;12.95;;;;;;;5.16;65.57;102442.47;4992019;28;20046;-47
2024/01/07 07:43:46;;;;;;;22.90;12.00;;;;;;;5.00;66.36;102438.88;4991731;28;20038;-45
2024/01/07 07:46:13;;;;;;;21.27;11.05;;;;;;;5.09;65.48;102448.06;4991529;28;20038;-46
2024/01/07 07:48:38;;;;;;;23.13;11.48;;;;;;;4.70;65.87;102459.44;4992010;28;20102;-45
2024/01/07 07:51:04;;;;;;;20.30;11.18;;;;;;;5.20;64.73;102451.31;4991375;28;20834;-50
2024/01/07 07:53:29;;;;;;;20.27;10.52;;;;;;;5.03;65.27;102463.22;4992348;28;20100;-46
2024/01/07 07:55:54;;;;;;;21.70;11.35;;;;;;;4.85;64.55;102457.81;4990719;28;20040;-45
2024/01/07 07:58:20;;;;;;;21.02;11.10;;;;;;;5.16;64.12;102463.16;4990921;28;20611;-50
2024/01/07 08:00:45;;;;;;;19.02;10.32;;;;;;;5.11;64.44;102466.28;4992149;28;20041;-47
2024/01/07 08:03:10;;;;;;;21.17;10.73;;;;;;;4.84;64.68;102483.56;4991077;28;20038;-45
2024/01/07 08:05:36;;;;;;;21.88;11.30;;;;;;;4.84;64.76;102465.47;4990767;28;20045;-45
2024/01/07 08:08:01;;;;;;;21.70;10.57;;;;;;;5.00;63.47;102475.06;4991533;28;20108;-44
2024/01/07 08:10:28;;;;;;;21.27;10.68;;;;;;;4.66;64.51;102483.31;4992505;28;20030;-45
2024/01/07 08:12:54;;;;;;;19.38;10.65;;;;;;;4.78;64.69;102485.75;4992033;28;20042;-46
2024/01/07 08:15:19;;;;;;;20.23;10.18;;;;;;;5.38;63.70;102478.25;4973609;28;20085;-47
2024/01/07 08:17:45;;;;;;;17.60;9.82;;;;;;;4.90;63.79;102483.94;4992416;28;20093;-48
2024/01/07 08:20:10;;;;;;;21.50;10.95;;;;;;;5.02;64.29;102502.78;4991205;28;20034;-45
2024/01/07 08:22:36;;;;;;;20.33;10.23;;;;;;;4.83;64.71;102494.69;4992643;28;20054;-44
2024/01/07 08:25:01;;;;;;;20.73;10.45;;;;;;;4.45;64.81;102505.22;4992584;28;20038;-48
2024/01/07 08:27:27;;;;;;;21.33;10.57;;;;;;;4.76;64.83;102505.44;4993723;28;20037;-46
2024/01/07 08:29:52;;;;;;;24.45;11.43;;;;;;;4.97;64.62;102511.06;4991503;28;20049;-45
2024/01/07 08:32:19;;;;;;;20.52;10.38;;;;;;;4.67;63.56;102508.34;4992885;28;20038;-48
2024/01/07 08:34:44;;;;;;;20.70;10.38;;;;;;;4.64;65.58;102522.75;4989404;28;20121;-45
2024/01/07 08:37:10;;;;;;;21.13;10.18;;;;;;;5.03;63.83;102521.78;4990580;28;20121;-46
2024/01/07 08:39:36;;;;;;;19.33;10.35;;;;;;;5.01;63.72;102524.25;4990263;28;20114;-51
2024/01/07 08:42:01;;;;;;;19.13;10.05;;;;;;;4.89;64.95;102521.81;4991549;28;20046;-47
2024/01/07 08:44:26;;;;;;;20.35;10.20;;;;;;;4.96;64.66;102528.25;4989969;28;20464;-45
2024/01/07 08:46:52;;;;;;;21.25;10.38;;;;;;;5.19;63.86;102530.56;4990376;28;20049;-47
2024/01/07 08:49:17;;;;;;;17.90;9.55;;;;;;;4.77;64.65;102533.94;4991063;28;20038;-46
2024/01/07 08:51:43;;;;;;;18.85;9.73;;;;;;;4.64;65.03;102539.13;4991461;28;20490;-45
2024/01/07 08:54:08;;;;;;;19.80;10.55;;;;;;;4.75;64.00;102543.31;4990824;28;20054;-50
2024/01/07 08:56:33;;;;;;;22.80;10.63;;;;;;;4.85;64.61;102547.38;4991520;28;20046;-44
2024/01/07 08:58:59;;;;;;;21.25;10.98;;;;;;;5.18;63.35;102546.91;4990582;28;20039;-46
2024/01/07 09:01:24;;;;;;;20.05;10.60;;;;;;;5.20;63.11;102542.69;4990790;28;20413;-44
2024/01/07 09:03:50;;;;;;;22.42;10.75;;;;;;;4.98;63.88;102541.28;4990512;28;20110;-48
2024/01/07 09:06:15;;;;;;;20.48;10.85;;;;;;;4.85;63.76;102553.44;4990304;28;20136;-47
2024/01/07 09:08:42;;;;;;;21.38;11.38;;;;;;;4.77;64.07;102543.41;4992104;28;20061;-46
2024/01/07 09:11:10;;;;;;;19.50;10.43;;;;;;;4.85;63.23;102550.84;4994383;28;20062;-47
2024/01/07 09:13:36;;;;;;;25.63;11.48;;;;;;;4.83;63.60;102560.19;4994594;28;20038;-45
2024/01/07 09:16:02;;;;;;;20.08;10.77;;;;;;;5.18;62.21;102566.69;4994058;28;20042;-44
2024/01/07 09:18:27;;;;;;;19.70;10.98;;;;;;;4.94;61.76;102568.59;4995443;28;20084;-49
2024/01/07 09:20:53;;;;;;;21.42;10.75;;;;;;;5.44;61.87;102565.66;4993349;28;20061;-45
2024/01/07 09:23:18;;;;;;;22.13;11.00;;;;;;;5.40;62.13;102571.47;4994659;28;20355;-53
2024/01/07 09:25:43;;;;;;;18.85;9.38;;;;;;;4.64;62.99;102566.66;4998583;28;20511;-49
2024/01/07 09:28:09;;;;;;;18.75;9.55;;;;;;;4.93;62.03;102581.44;4996462;28;20588;-45
2024/01/07 09:30:34;;;;;;;18.30;9.88;;;;;;;4.75;62.21;102588.94;4995155;28;20037;-48
2024/01/07 09:33:00;;;;;;;18.15;9.43;;;;;;;4.92;61.81;102590.91;4994977;28;20038;-49
2024/01/07 09:35:25;;;;;;;17.75;9.52;;;;;;;4.96;61.07;102584.22;4994109;28;20699;-45
2024/01/07 09:37:50;;;;;;;16.95;8.68;;;;;;;4.66;61.25;102583.16;4997378;28;20102;-47
2024/01/07 09:40:20;;;;;;;17.55;8.70;;;;;;;4.43;61.33;102603.25;5000053;28;20046;-48
2024/01/07 09:42:46;;;;;;;16.40;8.38;;;;;;;4.52;61.10;102609.78;4997034;28;20034;-45
2024/01/07 09:45:13;;;;;;;16.08;8.32;;;;;;;4.56;60.81;102611.78;4993747;28;20034;-45
2024/01/07 09:47:40;;;;;;;18.50;8.77;;;;;;;4.51;60.50;102620.94;4993916;28;20129;-47
2024/01/07 09:50:06;;;;;;;16.95;8.70;;;;;;;4.48;61.34;102627.66;4993230;28;20038;-44
2024/01/07 09:52:33;;;;;;;16.70;8.60;;;;;;;5.17;59.64;102632.13;4994339;28;20096;-43
2024/01/07 09:55:03;;;;;;;17.92;9.10;;;;;;;4.96;59.60;102633.31;4992851;28;20030;-48
2024/01/07 09:57:29;;;;;;;16.17;8.02;;;;;;;5.01;59.90;102626.75;4994014;28;20038;-47
2024/01/07 09:59:55;;;;;;;16.35;8.00;;;;;;;5.14;59.56;102634.50;4993359;28;20042;-44
2024/01/07 10:02:22;;;;;;;16.98;8.40;;;;;;;4.61;60.50;102625.88;4993626;28;20590;-47
2024/01/07 10:04:48;;;;;;;15.98;8.18;;;;;;;4.40;60.54;102630.53;4992401;28;20062;-44
2024/01/07 10:07:13;;;;;;;15.43;8.23;;;;;;;4.05;60.60;102641.97;4993582;28;20504;-47
2024/01/07 10:09:42;;;;;;;14.73;7.65;;;;;;;4.35;60.60;102642.25;4993182;28;20509;-48
2024/01/07 10:12:07;;;;;;;15.98;8.05;;;;;;;4.35;59.96;102643.16;4994058;28;20062;-48
2024/01/07 10:14:33;;;;;;;16.73;8.30;;;;;;;4.45;59.43;102648.09;4993496;28;20132;-45
2024/01/07 10:16:59;;;;;;;16.83;8.43;;;;;;;4.35;61.00;102639.66;4994257;28;20045;-44
2024/01/07 10:19:25;;;;;;;16.17;8.02;;;;;;;4.25;61.05;102643.34;4998589;28;20108;-47
2024/01/07 10:22:04;;;;;;;15.05;7.75;;;;;;;4.45;61.01;102642.94;4999041;28;20085;-49
2024/01/07 10:24:37;;;;;;;15.45;8.23;;;;;;;5.10;59.29;102653.19;4998071;28;20045;-48
2024/01/07 10:27:03;;;;;;;14.95;7.43;;;;;;;5.06;59.01;102654.66;4997078;28;20533;-48
2024/01/07 10:29:29;;;;;;;15.40;7.50;;;;;;;5.02;59.33;102655.28;4996502;28;20093;-46
2024/01/07 10:31:57;;;;;;;13.73;7.30;;;;;;;4.98;58.86;102657.59;4993712;28;20049;-47
2024/01/07 10:34:23;;;;;;;15.48;7.88;;;;;;;4.75;58.63;102658.69;4993881;28;20050;-50
2024/01/07 10:36:50;;;;;;;12.93;6.22;;;;;;;3.97;60.38;102666.38;4995406;28;20038;-48
2024/01/07 10:39:16;;;;;;;14.50;7.00;;;;;;;4.67;59.70;102671.09;4997003;28;20049;-46
2024/01/07 10:41:44;;;;;;;13.18;6.70;;;;;;;4.59;59.25;102668.78;4993356;28;20038;-45
2024/01/07 10:44:09;;;;;;;14.85;7.10;;;;;;;4.82;58.80;102663.44;4993276;28;20464;-45
2024/01/07 10:46:35;;;;;;;14.05;6.47;;;;;;;4.46;60.13;102667.97;4992722;28;20058;-51
2024/01/07 10:49:11;;;;;;;12.10;6.15;;;;;;;4.61;59.37;102667.22;4991545;28;20453;-47
2024/01/07 10:51:36;;;;;;;11.82;6.25;;;;;;;4.36;59.63;102681.09;4992363;28;20164;-45
2024/01/07 10:54:02;;;;;;;11.85;5.97;;;;;;;4.72;59.11;102676.56;4992778;28;20513;-44
2024/01/07 10:56:40;;;;;;;12.90;6.40;;;;;;;4.56;59.13;102668.59;4992757;28;20045;-49
2024/01/07 10:59:05;;;;;;;13.68;6.18;;;;;;;4.62;58.92;102682.81;4992129;28;20045;-44
2024/01/07 11:01:31;;;;;;;10.93;5.68;;;;;;;4.67;59.58;102673.69;4992708;28;20035;-46
2024/01/07 11:03:59;;;;;;;11.13;5.75;;;;;;;5.02;58.68;102669.91;4992198;28;20026;-45
2024/01/07 11:06:39;;;;;;;11.25;6.13;;;;;;;5.37;58.16;102669.56;4992133;28;20046;-47
2024/01/07 11:09:18;;;;;;;11.63;6.00;;;;;;;5.29;57.87;102671.66;4992535;28;20027;-46
2024/01/07 11:11:44;;;;;;;12.15;5.97;;;;;;;5.04;57.83;102666.63;4990214;28;20122;-49
2024/01/07 11:14:33;;;;;;;12.55;6.15;;;;;;;5.04;57.84;102674.38;4992875;28;20442;-47